Terminal Aerodrome Forecast
Issued by NWS Rapid City, SD

Home | Current Version | Previous Version | Graphics & Text | Print | Product List | Glossary On
Versions: 1 2 3 4 5 6 7 8 9 10 11 12 13 14 15 16 17 18 19 20 21 22 23
077
FTUS43 KUNR 270527
TAFRAP
TAF
KRAP 270527Z 2706/2806 VRB03KT P6SM SCT200
     FM270800 VRB03KT P6SM SCT150
     FM271200 VRB03KT P6SM SCT025
     FM271400 10006KT P6SM SCT015
     FM271500 10007KT P6SM BKN020
     FM271600 10008KT P6SM BKN030
     FM271700 10009KT P6SM BKN035
     FM280200 07006KT P6SM BKN060=

USA.gov is the U.S. government's official web portal to all federal, state and local government web resources and services.